createdAt,value
2023-04-15T00:01:01.561Z,94637.22
2023-04-15T00:03:30.241Z,94637.42
2023-04-15T00:06:00.132Z,94632.52
2023-04-15T00:08:30.191Z,94632.73
2023-04-15T00:11:03.142Z,94630.73
2023-04-15T00:13:34.179Z,94630.64
2023-04-15T00:16:02.815Z,94625.77
2023-04-15T00:18:31.948Z,94622.80
2023-04-15T00:21:00.430Z,94623.41
2023-04-15T00:23:29.090Z,94623.20
2023-04-15T00:25:57.475Z,94620.86
2023-04-15T00:28:25.741Z,94618.19
2023-04-15T00:30:54.133Z,94618.02
2023-04-15T00:33:22.432Z,94623.06
2023-04-15T00:35:51.067Z,94624.38
2023-04-15T00:38:19.797Z,94626.75
2023-04-15T00:40:48.489Z,94625.99
2023-04-15T00:43:17.845Z,94620.02
2023-04-15T00:45:47.410Z,94617.56
2023-04-15T00:48:16.569Z,94614.10
2023-04-15T00:50:44.937Z,94613.13
2023-04-15T00:53:13.418Z,94614.85
2023-04-15T00:55:42.820Z,94612.77
2023-04-15T00:58:11.332Z,94611.75
2023-04-15T01:00:41.030Z,94614.36
2023-04-15T01:03:10.321Z,94618.34
2023-04-15T01:05:39.547Z,94616.48
2023-04-15T01:08:07.910Z,94611.75
2023-04-15T01:10:36.142Z,94606.66
2023-04-15T01:13:04.474Z,94613.91
2023-04-15T01:15:32.933Z,94610.91
2023-04-15T01:18:03.360Z,94615.05
2023-04-15T01:20:32.263Z,94618.85
2023-04-15T01:23:01.536Z,94614.77
2023-04-15T01:25:33.460Z,94617.57
2023-04-15T01:28:02.407Z,94615.44
2023-04-15T01:30:34.948Z,94620.12
2023-04-15T01:33:03.340Z,94617.57
2023-04-15T01:35:32.389Z,94619.05
2023-04-15T01:38:07.599Z,94617.72
2023-04-15T01:40:36.000Z,94614.84
2023-04-15T01:43:04.257Z,94612.80
2023-04-15T01:45:32.442Z,94616.96
2023-04-15T01:48:01.072Z,94617.71
2023-04-15T01:50:29.511Z,94622.27
2023-04-15T01:52:57.834Z,94625.45
2023-04-15T01:55:26.380Z,94626.83
2023-04-15T01:57:55.001Z,94628.89
2023-04-15T02:00:24.190Z,94634.86
2023-04-15T02:02:54.265Z,94633.29
2023-04-15T02:05:22.889Z,94632.55
2023-04-15T02:07:51.566Z,94631.02
2023-04-15T02:10:19.916Z,94633.54
2023-04-15T02:12:48.031Z,94632.91
2023-04-15T02:15:16.699Z,94630.20
2023-04-15T02:17:46.231Z,94635.43
2023-04-15T02:20:19.400Z,94634.91
2023-04-15T02:22:48.599Z,94631.49
2023-04-15T02:25:17.406Z,94632.64
2023-04-15T02:27:45.872Z,94635.80
2023-04-15T02:30:14.290Z,94638.06
2023-04-15T02:32:45.456Z,94640.80
2023-04-15T02:35:14.378Z,94640.89
2023-04-15T02:37:44.023Z,94640.36
2023-04-15T02:40:13.408Z,94638.89
2023-04-15T02:42:43.383Z,94635.92
2023-04-15T02:45:13.901Z,94634.58
2023-04-15T02:47:43.457Z,94633.45
2023-04-15T02:50:13.394Z,94630.25
2023-04-15T02:52:44.954Z,94625.23
2023-04-15T02:55:13.536Z,94622.52
2023-04-15T02:57:41.992Z,94620.61
2023-04-15T03:00:12.374Z,94617.79
2023-04-15T03:02:43.576Z,94619.61
2023-04-15T03:05:13.915Z,94617.16
2023-04-15T03:07:46.488Z,94621.94
2023-04-15T03:10:15.826Z,94624.82
2023-04-15T03:12:44.009Z,94620.27
2023-04-15T03:15:15.814Z,94617.50
2023-04-15T03:17:46.682Z,94616.73
2023-04-15T03:20:15.835Z,94615.95
2023-04-15T03:22:44.337Z,94617.35
2023-04-15T03:25:12.630Z,94616.71
2023-04-15T03:27:42.064Z,94617.14
2023-04-15T03:30:11.227Z,94622.77
2023-04-15T03:32:40.427Z,94617.98
2023-04-15T03:35:09.849Z,94620.92
2023-04-15T03:37:38.209Z,94624.10
2023-04-15T03:40:07.495Z,94625.45
2023-04-15T03:42:35.788Z,94624.88
2023-04-15T03:45:04.789Z,94622.69
2023-04-15T03:47:33.097Z,94625.75
2023-04-15T03:50:01.359Z,94623.84
2023-04-15T03:52:29.532Z,94627.41
2023-04-15T03:54:58.000Z,94631.43
2023-04-15T03:57:26.723Z,94633.55
2023-04-15T03:59:54.983Z,94633.42
2023-04-15T04:02:23.712Z,94636.20
2023-04-15T04:04:52.265Z,94638.48
2023-04-15T04:07:20.521Z,94641.28
2023-04-15T04:09:48.929Z,94644.78
2023-04-15T04:12:17.171Z,94644.15
2023-04-15T04:14:45.963Z,94642.59
2023-04-15T04:17:14.173Z,94649.84
2023-04-15T04:19:42.423Z,94650.73
2023-04-15T04:22:10.827Z,94650.58
2023-04-15T04:24:39.177Z,94649.64
2023-04-15T04:27:07.770Z,94652.51
2023-04-15T04:29:36.360Z,94653.81
2023-04-15T04:32:05.071Z,94655.80
2023-04-15T04:34:33.350Z,94658.61
2023-04-15T04:37:01.587Z,94657.42
2023-04-15T04:39:29.772Z,94660.20
2023-04-15T04:41:57.866Z,94659.90
2023-04-15T04:44:26.523Z,94657.17
2023-04-15T04:46:54.834Z,94662.11
2023-04-15T04:49:23.392Z,94663.74
2023-04-15T04:51:52.497Z,94667.84
2023-04-15T04:54:21.489Z,94665.73
2023-04-15T04:56:49.653Z,94661.09
2023-04-15T04:59:19.396Z,94657.34
2023-04-15T05:01:48.308Z,94655.86
2023-04-15T05:04:17.045Z,94658.00
2023-04-15T05:06:45.547Z,94660.14
2023-04-15T05:09:13.711Z,94658.54
2023-04-15T05:11:42.123Z,94657.30
2023-04-15T05:14:10.475Z,94656.17
2023-04-15T05:16:38.802Z,94651.85
2023-04-15T05:19:07.888Z,94656.16
2023-04-15T05:21:38.253Z,94662.67
2023-04-15T05:24:07.791Z,94661.83
2023-04-15T05:26:36.087Z,94660.61
2023-04-15T05:29:04.613Z,94661.29
2023-04-15T05:31:33.218Z,94658.67
2023-04-15T05:34:01.816Z,94657.42
2023-04-15T05:36:30.029Z,94657.43
2023-04-15T05:38:58.295Z,94654.45
2023-04-15T05:41:26.658Z,94657.90
2023-04-15T05:43:55.055Z,94659.39
2023-04-15T05:46:23.392Z,94661.75
2023-04-15T05:48:51.847Z,94658.67
2023-04-15T05:51:20.383Z,94666.94
2023-04-15T05:53:48.763Z,94671.81
2023-04-15T05:56:17.358Z,94677.52
2023-04-15T05:58:45.529Z,94676.11
2023-04-15T06:01:13.753Z,94680.83
2023-04-15T06:03:43.131Z,94686.08
2023-04-15T06:06:11.488Z,94680.98
2023-04-15T06:08:39.772Z,94679.81
2023-04-15T06:11:08.040Z,94677.61
2023-04-15T06:13:36.376Z,94681.38
2023-04-15T06:16:05.467Z,94681.86
2023-04-15T06:18:33.702Z,94678.91
2023-04-15T06:21:02.081Z,94680.86
2023-04-15T06:23:30.561Z,94687.58
2023-04-15T06:25:58.868Z,94688.09
2023-04-15T06:28:27.012Z,94694.46
2023-04-15T06:30:55.148Z,94697.70
2023-04-15T06:33:23.568Z,94699.78
2023-04-15T06:35:51.741Z,94703.25
2023-04-15T06:38:20.073Z,94699.04
2023-04-15T06:40:48.398Z,94704.98
2023-04-15T06:43:16.619Z,94704.39
2023-04-15T06:45:44.889Z,94712.42
2023-04-15T06:48:13.449Z,94714.83
2023-04-15T06:50:41.928Z,94715.98
2023-04-15T06:53:10.200Z,94723.17
2023-04-15T06:55:38.463Z,94731.42
2023-04-15T06:58:06.571Z,94740.93
2023-04-15T07:00:34.725Z,94739.23
2023-04-15T07:03:03.968Z,94739.95
2023-04-15T07:05:32.611Z,94737.20
2023-04-15T07:08:01.353Z,94739.73
2023-04-15T07:10:30.198Z,94740.53
2023-04-15T07:12:58.577Z,94740.75
2023-04-15T07:15:26.769Z,94741.97
2023-04-15T07:17:55.398Z,94743.66
2023-04-15T07:20:23.750Z,94742.20
2023-04-15T07:22:52.006Z,94742.18
2023-04-15T07:25:20.785Z,94737.95
2023-04-15T07:27:49.077Z,94742.39
2023-04-15T07:30:17.442Z,94745.70
2023-04-15T07:32:45.895Z,94744.25
2023-04-15T07:35:14.919Z,94742.46
2023-04-15T07:37:43.710Z,94744.21
2023-04-15T07:40:12.129Z,94748.48
2023-04-15T07:42:41.451Z,94746.13
2023-04-15T07:45:10.549Z,94740.21
2023-04-15T07:47:38.842Z,94737.25
2023-04-15T07:50:07.534Z,94741.61
2023-04-15T07:52:39.335Z,94743.34
2023-04-15T07:55:11.545Z,94740.98
2023-04-15T07:57:40.171Z,94744.34
2023-04-15T08:00:09.302Z,94742.61
2023-04-15T08:02:43.735Z,94744.49
2023-04-15T08:05:12.210Z,94736.86
2023-04-15T08:07:41.095Z,94741.69
2023-04-15T08:10:10.171Z,94739.20
2023-04-15T08:12:38.655Z,94735.04
2023-04-15T08:15:08.473Z,94738.65
2023-04-15T08:17:36.848Z,94735.19
2023-04-15T08:20:06.175Z,94740.23
2023-04-15T08:22:34.635Z,94737.02
2023-04-15T08:25:03.844Z,94741.66
2023-04-15T08:27:32.240Z,94744.27
2023-04-15T08:30:02.153Z,94746.59
2023-04-15T08:32:32.268Z,94740.81
2023-04-15T08:35:00.834Z,94737.20
2023-04-15T08:37:29.294Z,94735.25
2023-04-15T08:39:57.529Z,94734.62
2023-04-15T08:42:32.864Z,94727.79
2023-04-15T08:45:02.192Z,94726.31
2023-04-15T08:47:34.639Z,94725.42
2023-04-15T08:50:04.640Z,94726.33
2023-04-15T08:52:33.353Z,94724.30
2023-04-15T08:55:03.804Z,94729.28
2023-04-15T08:57:33.624Z,94720.42
2023-04-15T09:00:05.706Z,94722.05
2023-04-15T09:02:34.666Z,94721.11
2023-04-15T09:05:05.173Z,94724.09
2023-04-15T09:07:36.920Z,94723.38
2023-04-15T09:10:05.718Z,94728.16
2023-04-15T09:12:37.703Z,94722.96
2023-04-15T09:15:06.965Z,94724.08
2023-04-15T09:17:35.269Z,94719.87
2023-04-15T09:20:15.297Z,94719.44
2023-04-15T09:22:45.644Z,94719.88
2023-04-15T09:25:22.925Z,94717.35
2023-04-15T09:27:58.409Z,94719.81
2023-04-15T09:30:28.601Z,94716.92
2023-04-15T09:33:02.548Z,94719.30
2023-04-15T09:35:31.239Z,94717.74
2023-04-15T09:38:08.289Z,94717.23
2023-04-15T09:40:36.569Z,94714.05
2023-04-15T09:43:06.292Z,94714.49
2023-04-15T09:45:36.009Z,94713.29
2023-04-15T09:48:31.505Z,94711.08
2023-04-15T09:51:01.669Z,94710.56
2023-04-15T09:53:33.096Z,94710.55
2023-04-15T09:56:02.686Z,94713.73
2023-04-15T09:58:33.833Z,94712.83
2023-04-15T10:01:05.261Z,94711.54
2023-04-15T10:03:39.187Z,94707.96
2023-04-15T10:06:08.324Z,94704.75
2023-04-15T10:08:36.560Z,94718.12
2023-04-15T10:11:06.175Z,94730.88
2023-04-15T10:13:36.536Z,94736.11
2023-04-15T10:16:10.985Z,94735.93
2023-04-15T10:18:43.939Z,94736.67
2023-04-15T10:21:18.994Z,94740.05
2023-04-15T10:23:47.817Z,94744.52
2023-04-15T10:26:17.682Z,94741.14
2023-04-15T10:28:50.097Z,94739.48
2023-04-15T10:31:20.240Z,94743.77
2023-04-15T10:33:49.551Z,94747.25
2023-04-15T10:36:20.346Z,94741.52
2023-04-15T10:38:48.776Z,94739.89
2023-04-15T10:41:21.060Z,94740.16
2023-04-15T10:44:01.649Z,94737.66
2023-04-15T10:46:46.013Z,94735.39
2023-04-15T10:49:17.184Z,94734.03
2023-04-15T10:51:51.371Z,94731.67
2023-04-15T10:54:25.898Z,94735.20
2023-04-15T10:57:06.729Z,94731.66
2023-04-15T11:00:06.952Z,94731.88
2023-04-15T11:02:47.691Z,94733.29
2023-04-15T11:05:17.831Z,94729.55
2023-04-15T11:07:58.955Z,94726.49
2023-04-15T11:10:31.112Z,94725.96
2023-04-15T11:13:00.668Z,94721.85
2023-04-15T11:15:32.613Z,94720.31
2023-04-15T11:18:14.077Z,94723.61
2023-04-15T11:20:47.433Z,94724.83
2023-04-15T11:23:17.085Z,94720.23
2023-04-15T11:25:46.304Z,94723.13
2023-04-15T11:28:14.538Z,94722.01
2023-04-15T11:30:43.693Z,94716.60
2023-04-15T11:33:13.931Z,94722.34
2023-04-15T11:35:42.764Z,94719.55
2023-04-15T11:38:13.210Z,94718.05
2023-04-15T11:40:44.567Z,94723.33
2023-04-15T11:43:23.060Z,94724.10
2023-04-15T11:45:53.467Z,94723.22
2023-04-15T11:48:28.074Z,94728.02
2023-04-15T11:50:59.402Z,94728.85
2023-04-15T11:53:48.303Z,94730.85
2023-04-15T11:56:22.060Z,94728.65
2023-04-15T11:58:59.449Z,94730.09
2023-04-15T12:01:48.141Z,94730.33
2023-04-15T12:04:23.490Z,94736.29
2023-04-15T12:06:53.633Z,94733.85
2023-04-15T12:09:21.962Z,94729.73
2023-04-15T12:11:58.577Z,94730.16
2023-04-15T12:14:29.238Z,94735.23
2023-04-15T12:17:02.354Z,94737.90
2023-04-15T12:19:38.987Z,94737.50
2023-04-15T12:22:14.133Z,94738.27
2023-04-15T12:24:48.670Z,94735.41
2023-04-15T12:27:17.877Z,94731.52
2023-04-15T12:29:46.160Z,94736.51
2023-04-15T12:32:16.460Z,94742.13
2023-04-15T12:34:50.947Z,94752.27
2023-04-15T12:37:19.645Z,94761.10
2023-04-15T12:39:50.637Z,94762.15
2023-04-15T12:42:19.306Z,94769.06
2023-04-15T12:44:47.577Z,94773.33
2023-04-15T12:47:15.975Z,94772.42
2023-04-15T12:49:44.260Z,94776.78
2023-04-15T12:52:12.732Z,94773.14
2023-04-15T12:54:40.859Z,94770.39
2023-04-15T12:57:09.184Z,94771.41
2023-04-15T12:59:37.774Z,94765.85
2023-04-15T13:02:06.185Z,94771.95
2023-04-15T13:04:34.669Z,94769.06
2023-04-15T13:07:03.202Z,94771.69
2023-04-15T13:09:31.486Z,94769.94
2023-04-15T13:11:59.748Z,94773.61
2023-04-15T13:14:27.860Z,94780.48
2023-04-15T13:16:56.530Z,94781.95
2023-04-15T13:19:24.647Z,94780.88
2023-04-15T13:21:52.893Z,94783.36
2023-04-15T13:24:21.033Z,94782.52
2023-04-15T13:26:50.403Z,94785.45
2023-04-15T13:29:18.973Z,94780.60
2023-04-15T13:31:47.298Z,94783.19
2023-04-15T13:34:15.799Z,94791.33
2023-04-15T13:36:44.079Z,94786.69
2023-04-15T13:39:12.228Z,94789.91
2023-04-15T13:41:41.148Z,94790.22
2023-04-15T13:44:09.666Z,94787.63
2023-04-15T13:46:39.754Z,94791.49
2023-04-15T13:49:08.033Z,94791.20
2023-04-15T13:51:40.677Z,94796.20
2023-04-15T13:54:09.193Z,94795.63
2023-04-15T13:56:37.748Z,94801.82
2023-04-15T13:59:06.884Z,94803.84
2023-04-15T14:01:36.144Z,94806.45
2023-04-15T14:04:04.760Z,94810.27
2023-04-15T14:06:33.553Z,94809.20
2023-04-15T14:09:01.715Z,94813.73
2023-04-15T14:11:30.220Z,94814.29
2023-04-15T14:13:58.493Z,94816.39
2023-04-15T14:16:26.925Z,94821.05
2023-04-15T14:18:55.353Z,94822.34
2023-04-15T14:21:23.776Z,94820.68
2023-04-15T14:23:52.010Z,94825.23
2023-04-15T14:26:20.684Z,94828.23
2023-04-15T14:28:49.021Z,94831.40
2023-04-15T14:31:17.344Z,94827.82
2023-04-15T14:33:46.517Z,94828.41
2023-04-15T14:36:14.743Z,94827.38
2023-04-15T14:38:43.214Z,94832.60
2023-04-15T14:41:12.347Z,94836.58
2023-04-15T14:43:40.589Z,94838.45
2023-04-15T14:46:09.359Z,94844.42
2023-04-15T14:48:37.995Z,94844.63
2023-04-15T14:51:06.961Z,94844.70
2023-04-15T14:53:35.169Z,94842.73
2023-04-15T14:56:03.723Z,94841.23
2023-04-15T14:58:33.543Z,94839.60
2023-04-15T15:01:03.097Z,94846.98
2023-04-15T15:03:31.820Z,94850.64
2023-04-15T15:06:00.163Z,94848.85
2023-04-15T15:08:28.597Z,94852.19
2023-04-15T15:10:56.984Z,94857.77
2023-04-15T15:13:25.880Z,94860.96
2023-04-15T15:15:54.183Z,94862.76
2023-04-15T15:18:22.557Z,94867.48
2023-04-15T15:20:50.851Z,94873.15
2023-04-15T15:23:19.393Z,94884.84
2023-04-15T15:25:47.984Z,94884.70
2023-04-15T15:28:16.358Z,94886.16
2023-04-15T15:30:44.420Z,94889.95
2023-04-15T15:33:13.019Z,94891.92
2023-04-15T15:35:41.500Z,94879.17
2023-04-15T15:38:12.043Z,94895.63
2023-04-15T15:40:40.517Z,94886.74
2023-04-15T15:43:09.049Z,94889.94
2023-04-15T15:45:37.487Z,94888.71
2023-04-15T15:48:06.606Z,94885.44
2023-04-15T15:50:34.906Z,94885.48
2023-04-15T15:53:03.147Z,94889.97
2023-04-15T15:55:31.357Z,94892.49
2023-04-15T15:57:59.588Z,94886.25
2023-04-15T16:00:27.871Z,94887.02
2023-04-15T16:05:28.855Z,94898.66
2023-04-15T16:07:57.162Z,94896.85
2023-04-15T16:10:25.594Z,94895.24
2023-04-15T16:12:54.769Z,94899.41
2023-04-15T16:15:26.221Z,94897.64
2023-04-15T16:17:54.903Z,94899.80
2023-04-15T16:20:23.606Z,94897.80
2023-04-15T16:22:51.795Z,94896.18
2023-04-15T16:25:20.569Z,94894.29
2023-04-15T16:28:00.762Z,94894.05
2023-04-15T16:30:43.862Z,94890.45
2023-04-15T16:33:12.067Z,94888.30
2023-04-15T16:35:40.142Z,94889.58
2023-04-15T16:38:08.389Z,94892.90
2023-04-15T16:40:37.816Z,94895.92
2023-04-15T16:43:11.434Z,94899.23
2023-04-15T16:45:39.801Z,94906.88
2023-04-15T16:48:07.961Z,94907.66
2023-04-15T16:50:39.098Z,94920.56
2023-04-15T16:53:08.129Z,94924.60
2023-04-15T16:55:36.380Z,94930.90
2023-04-15T16:58:05.986Z,94935.87
2023-04-15T17:00:37.283Z,94940.35
2023-04-15T17:03:06.374Z,94949.38
2023-04-15T17:05:35.222Z,94954.39
2023-04-15T17:08:05.454Z,94957.48
2023-04-15T17:10:33.821Z,94967.73
2023-04-15T17:13:02.026Z,94968.31
2023-04-15T17:15:30.907Z,94973.13
2023-04-15T17:17:59.347Z,94979.52
2023-04-15T17:20:27.855Z,94984.77
2023-04-15T17:22:56.561Z,94993.29
2023-04-15T17:25:24.865Z,95000.56
2023-04-15T17:27:52.925Z,95012.38
2023-04-15T17:30:21.683Z,95029.34
2023-04-15T17:32:51.684Z,95050.70
2023-04-15T17:35:20.502Z,95056.40
2023-04-15T17:37:48.772Z,95060.50
2023-04-15T17:40:17.157Z,95060.67
2023-04-15T17:42:45.532Z,95058.84
2023-04-15T17:45:14.666Z,95063.48
2023-04-15T17:47:43.055Z,95072.16
2023-04-15T17:50:11.536Z,95077.88
2023-04-15T17:52:39.776Z,95077.13
2023-04-15T17:55:08.678Z,95075.75
2023-04-15T17:57:37.161Z,95075.85
2023-04-15T18:00:10.346Z,95075.94
2023-04-15T18:02:41.825Z,95087.52
2023-04-15T18:05:10.708Z,95095.45
2023-04-15T18:07:39.100Z,95101.98
2023-04-15T18:10:08.533Z,95105.51
2023-04-15T18:12:36.951Z,95100.02
2023-04-15T18:15:06.453Z,95103.91
2023-04-15T18:17:34.679Z,95103.82
2023-04-15T18:20:03.739Z,95110.00
2023-04-15T18:22:31.910Z,95111.60
2023-04-15T18:25:04.341Z,95115.33
2023-04-15T18:27:34.449Z,95119.04
2023-04-15T18:30:02.666Z,95124.12
2023-04-15T18:32:33.019Z,95128.46
2023-04-15T18:35:02.131Z,95128.52
2023-04-15T18:37:30.716Z,95133.45
2023-04-15T18:39:59.586Z,95130.36
2023-04-15T18:42:27.820Z,95131.70
2023-04-15T18:44:56.179Z,95131.07
2023-04-15T18:47:27.286Z,95130.71
2023-04-15T18:49:55.828Z,95125.41
2023-04-15T18:52:24.357Z,95127.91
2023-04-15T18:54:52.849Z,95136.38
2023-04-15T18:57:24.482Z,95140.96
2023-04-15T19:00:01.517Z,95144.27
2023-04-15T19:02:29.821Z,95145.14
2023-04-15T19:04:58.371Z,95146.59
2023-04-15T19:07:26.826Z,95145.02
2023-04-15T19:09:55.103Z,95143.98
2023-04-15T19:12:23.444Z,95141.77
2023-04-15T19:14:51.762Z,95145.66
2023-04-15T19:17:20.207Z,95149.73
2023-04-15T19:19:48.422Z,95147.76
2023-04-15T19:22:16.968Z,95152.80
2023-04-15T19:24:46.314Z,95148.20
2023-04-15T19:27:14.793Z,95149.04
2023-04-15T19:29:43.110Z,95149.48
2023-04-15T19:32:11.456Z,95153.16
2023-04-15T19:34:39.831Z,95156.17
2023-04-15T19:37:08.319Z,95151.90
2023-04-15T19:39:36.883Z,95157.98
2023-04-15T19:42:05.587Z,95154.36
2023-04-15T19:44:33.872Z,95153.99
2023-04-15T19:47:02.193Z,95147.13
2023-04-15T19:49:30.762Z,95150.56
2023-04-15T19:51:59.008Z,95148.88
2023-04-15T19:54:27.288Z,95155.70
2023-04-15T19:56:55.873Z,95156.39
2023-04-15T19:59:24.536Z,95158.64
2023-04-15T20:01:53.427Z,95161.08
2023-04-15T20:04:22.753Z,95156.96
2023-04-15T20:06:51.108Z,95154.34
2023-04-15T20:09:19.326Z,95160.20
2023-04-15T20:12:46.793Z,95160.56
2023-04-15T20:14:36.350Z,95169.70
2023-04-15T20:17:04.539Z,95163.42
2023-04-15T20:19:32.611Z,95170.72
2023-04-15T20:22:00.921Z,95170.81
2023-04-15T20:24:29.250Z,95171.45
2023-04-15T20:26:57.833Z,95172.45
2023-04-15T20:29:26.565Z,95173.48
2023-04-15T20:31:54.801Z,95178.26
2023-04-15T20:34:23.120Z,95179.89
2023-04-15T20:36:51.467Z,95177.44
2023-04-15T20:39:20.045Z,95176.98
2023-04-15T20:41:50.061Z,95172.96
2023-04-15T20:44:18.350Z,95176.05
2023-04-15T20:46:46.875Z,95174.09
2023-04-15T20:49:15.106Z,95180.05
2023-04-15T20:51:43.587Z,95183.23
2023-04-15T20:54:11.867Z,95179.44
2023-04-15T20:56:40.246Z,95181.17
2023-04-15T20:59:08.591Z,95188.70
2023-04-15T21:01:36.845Z,95192.16
2023-04-15T21:04:05.137Z,95191.38
2023-04-15T21:06:34.648Z,95189.27
2023-04-15T21:09:03.352Z,95197.09
2023-04-15T21:11:53.375Z,95199.04
2023-04-15T21:14:21.459Z,95205.41
2023-04-15T21:16:49.679Z,95204.05
2023-04-15T21:19:17.896Z,95201.38
2023-04-15T21:21:46.379Z,95203.25
2023-04-15T21:24:14.653Z,95203.19
2023-04-15T21:26:42.832Z,95208.77
2023-04-15T21:29:12.177Z,95210.33
2023-04-15T21:31:40.998Z,95212.99
2023-04-15T21:34:10.132Z,95216.45
2023-04-15T21:36:39.224Z,95213.52
2023-04-15T21:39:07.838Z,95217.60
2023-04-15T21:41:37.340Z,95215.63
2023-04-15T21:44:06.003Z,95216.61
2023-04-15T21:46:35.574Z,95216.53
2023-04-15T21:49:04.501Z,95219.89
2023-04-15T21:51:33.494Z,95222.63
2023-04-15T21:54:01.830Z,95222.50
2023-04-15T21:56:30.159Z,95222.36
2023-04-15T21:58:58.979Z,95221.77
2023-04-15T22:01:27.530Z,95226.45
2023-04-15T22:03:56.462Z,95222.11
2023-04-15T22:06:24.940Z,95222.94
2023-04-15T22:08:57.403Z,95219.52
2023-04-15T22:11:27.857Z,95221.25
2023-04-15T22:13:57.909Z,95217.75
2023-04-15T22:16:26.852Z,95218.85
2023-04-15T22:18:56.156Z,95219.17
2023-04-15T22:21:24.525Z,95223.72
2023-04-15T22:23:53.197Z,95223.58
2023-04-15T22:26:41.389Z,95227.50
2023-04-15T22:29:09.818Z,95231.55
2023-04-15T22:31:38.996Z,95236.61
2023-04-15T22:34:08.223Z,95233.47
2023-04-15T22:36:36.576Z,95235.55
2023-04-15T22:39:04.867Z,95234.65
2023-04-15T22:41:33.232Z,95237.36
2023-04-15T22:44:01.740Z,95245.39
2023-04-15T22:46:30.344Z,95244.10
2023-04-15T22:48:58.537Z,95243.77
2023-04-15T22:51:28.151Z,95241.83
2023-04-15T22:53:56.598Z,95244.67
2023-04-15T22:56:25.018Z,95250.42
2023-04-15T22:58:53.452Z,95253.68
2023-04-15T23:01:21.742Z,95251.53
2023-04-15T23:03:56.793Z,95246.52
2023-04-15T23:06:33.360Z,95250.02
2023-04-15T23:09:01.519Z,95244.09
2023-04-15T23:11:30.448Z,95235.50
2023-04-15T23:13:58.588Z,95234.86
2023-04-15T23:16:27.538Z,95237.36
2023-04-15T23:18:55.779Z,95240.32
2023-04-15T23:21:26.044Z,95243.21
2023-04-15T23:23:54.718Z,95242.94
2023-04-15T23:26:23.480Z,95245.70
2023-04-15T23:28:51.737Z,95247.45
2023-04-15T23:31:20.119Z,95247.80
2023-04-15T23:33:48.805Z,95246.70
2023-04-15T23:36:17.244Z,95248.52
2023-04-15T23:38:45.468Z,95243.45
2023-04-15T23:41:14.053Z,95243.30
2023-04-15T23:43:42.333Z,95243.70
2023-04-15T23:46:12.080Z,95248.38
2023-04-15T23:48:42.009Z,95247.68
2023-04-15T23:51:10.459Z,95248.33
2023-04-15T23:53:38.720Z,95243.02
2023-04-15T23:56:07.626Z,95238.45
2023-04-15T23:58:35.988Z,95236.89
